Time;durP1;ratioP1;P1;durP2;ratioP2;P2;SDS_P1;SDS_P2;PMS_P1;PMS_P2;Temp;Humidity;BMP_temperature;BMP_pressure;BME280_temperature;BME280_humidity;BME280_pressure;Samples;Min_cycle;Max_cycle;Signal;HPM_P1;HPM_P2
2023/01/21 00:01:11;;;;;;;3.45;2.80;;;-1.80;99.90;;;;;;5133212;27;20435;-74
2023/01/21 00:03:37;;;;;;;2.83;2.53;;;-1.80;99.90;;;;;;5132945;27;20383;-74
2023/01/21 00:06:03;;;;;;;2.63;2.30;;;-1.90;99.90;;;;;;5133746;27;20977;-74
2023/01/21 00:08:28;;;;;;;3.10;2.80;;;-1.90;99.90;;;;;;5133701;27;20375;-74
2023/01/21 00:10:54;;;;;;;2.70;2.30;;;-2.00;99.90;;;;;;5129561;27;20436;-74
2023/01/21 00:13:20;;;;;;;3.70;2.60;;;-2.00;99.90;;;;;;5131983;27;20404;-74
2023/01/21 00:15:46;;;;;;;2.67;2.47;;;-1.90;99.90;;;;;;5133164;27;20767;-74
2023/01/21 00:18:11;;;;;;;2.97;2.67;;;-1.90;99.90;;;;;;5133638;27;20377;-74
2023/01/21 00:20:37;;;;;;;2.22;2.00;;;-2.00;99.90;;;;;;5133176;27;20378;-74
2023/01/21 00:23:03;;;;;;;2.70;2.13;;;-1.90;99.90;;;;;;5132664;27;20374;-74
2023/01/21 00:25:29;;;;;;;3.50;2.13;;;-2.00;99.90;;;;;;5129231;27;20486;-74
2023/01/21 00:27:54;;;;;;;2.13;1.80;;;-2.00;99.90;;;;;;5133096;27;20374;-74
2023/01/21 00:30:20;;;;;;;2.60;2.08;;;-2.10;99.90;;;;;;5133512;27;20435;-74
2023/01/21 00:32:46;;;;;;;4.20;2.10;;;-2.00;99.90;;;;;;5132525;27;20418;-74
2023/01/21 00:35:12;;;;;;;3.33;2.20;;;-2.00;99.90;;;;;;5131494;27;20847;-74
2023/01/21 00:37:37;;;;;;;2.47;2.20;;;-2.00;99.90;;;;;;5133068;27;20868;-74
2023/01/21 00:40:05;;;;;;;2.35;2.10;;;-2.00;99.90;;;;;;5132755;27;20379;-74
2023/01/21 00:42:30;;;;;;;2.20;1.98;;;-2.00;99.90;;;;;;5132236;27;20379;-75
2023/01/21 00:44:56;;;;;;;3.25;2.00;;;-2.10;99.90;;;;;;5132686;27;20879;-75
2023/01/21 00:47:23;;;;;;;2.53;2.17;;;-2.10;99.90;;;;;;5132922;27;20379;-74
2023/01/21 00:49:49;;;;;;;2.85;2.40;;;-2.10;99.90;;;;;;5132914;27;20409;-75
2023/01/21 00:52:14;;;;;;;3.20;2.10;;;-2.10;99.90;;;;;;5132405;27;20399;-74
2023/01/21 00:54:40;;;;;;;2.37;1.80;;;-2.20;99.90;;;;;;5130958;27;20477;-74
2023/01/21 00:57:06;;;;;;;2.60;2.00;;;-2.20;99.90;;;;;;5132644;27;20418;-74
2023/01/21 00:59:32;;;;;;;2.40;2.20;;;-2.20;99.90;;;;;;5132195;27;20477;-74
2023/01/21 01:01:57;;;;;;;2.60;2.00;;;-2.10;99.90;;;;;;5132599;27;20545;-74
2023/01/21 01:04:23;;;;;;;4.20;2.10;;;-2.10;99.90;;;;;;5130222;27;21014;-74
2023/01/21 01:06:48;;;;;;;2.60;1.90;;;-2.20;99.90;;;;;;5132823;27;20461;-74
2023/01/21 01:09:14;;;;;;;3.50;2.50;;;-2.20;99.90;;;;;;5132207;27;20394;-74
2023/01/21 01:11:40;;;;;;;2.35;1.95;;;-2.20;99.90;;;;;;5132347;27;20386;-73
2023/01/21 01:14:05;;;;;;;2.05;1.80;;;-2.20;99.90;;;;;;5131204;27;20880;-74
2023/01/21 01:16:31;;;;;;;3.28;1.95;;;-2.30;99.90;;;;;;5132186;27;20470;-74
2023/01/21 01:18:56;;;;;;;2.55;2.20;;;-2.20;99.90;;;;;;5132438;27;20452;-74
2023/01/21 01:21:22;;;;;;;2.77;1.90;;;-2.20;99.90;;;;;;5132253;27;20501;-74
2023/01/21 01:23:50;;;;;;;2.30;2.10;;;-2.20;99.90;;;;;;5131161;27;20398;-74
2023/01/21 01:26:18;;;;;;;2.65;2.00;;;-2.20;99.90;;;;;;5132050;27;20870;-74
2023/01/21 01:28:44;;;;;;;2.83;1.80;;;-2.20;99.90;;;;;;5130820;27;20406;-74
2023/01/21 01:31:13;;;;;;;2.40;1.60;;;-2.20;99.90;;;;;;5132093;27;20374;-74
2023/01/21 01:33:38;;;;;;;1.95;1.63;;;-2.20;99.90;;;;;;5130954;27;20725;-74
2023/01/21 01:36:06;;;;;;;2.17;1.97;;;-2.30;99.90;;;;;;5131909;27;20427;-74
2023/01/21 01:38:33;;;;;;;1.95;1.75;;;-2.30;99.90;;;;;;5132018;27;20885;-73
2023/01/21 01:40:59;;;;;;;1.77;1.67;;;-2.30;99.90;;;;;;5130612;27;20427;-74
2023/01/21 01:43:46;;;;;;;2.28;1.77;;;-2.30;99.90;;;;;;5130638;27;20402;-74
2023/01/21 01:46:11;;;;;;;2.08;1.88;;;-2.40;99.90;;;;;;5131377;27;20386;-74
2023/01/21 01:48:37;;;;;;;1.63;1.53;;;-2.30;99.90;;;;;;5130225;27;20389;-74
2023/01/21 01:51:06;;;;;;;2.10;1.90;;;-2.30;99.90;;;;;;5131529;27;20402;-74
2023/01/21 01:53:33;;;;;;;2.00;1.77;;;-2.40;99.90;;;;;;5113838;27;20444;-74
2023/01/21 01:55:59;;;;;;;1.87;1.70;;;-2.50;99.90;;;;;;5131336;27;20737;-74
2023/01/21 01:58:25;;;;;;;2.03;1.70;;;-2.40;99.90;;;;;;5131484;27;20382;-74
2023/01/21 02:00:51;;;;;;;1.65;1.55;;;-2.50;99.90;;;;;;5131676;27;20410;-74
2023/01/21 02:05:46;;;;;;;2.58;1.60;;;-2.40;99.90;;;;;;5087156;28;20425;-72
2023/01/21 02:08:11;;;;;;;2.80;1.50;;;-2.60;99.90;;;;;;5072916;28;20388;-72
2023/01/21 02:10:37;;;;;;;1.90;1.70;;;-2.50;99.90;;;;;;5079939;28;20415;-72
2023/01/21 02:13:03;;;;;;;1.67;1.50;;;-2.50;99.90;;;;;;5088875;28;20396;-71
2023/01/21 02:15:47;;;;;;;1.80;1.58;;;-2.60;99.90;;;;;;5084198;28;20473;-71
2023/01/21 02:18:31;;;;;;;1.90;1.60;;;-2.50;99.90;;;;;;5090879;28;20390;-72
2023/01/21 02:21:19;;;;;;;2.90;1.77;;;-2.50;99.90;;;;;;5087349;28;20378;-72
2023/01/21 02:23:56;;;;;;;1.80;1.50;;;-2.50;99.90;;;;;;5083257;28;20417;-72
2023/01/21 02:26:39;;;;;;;2.00;1.50;;;-2.50;99.90;;;;;;5090035;28;20778;-72
2023/01/21 02:29:15;;;;;;;2.72;1.55;;;-2.50;99.90;;;;;;5089650;28;20553;-72
2023/01/21 02:32:07;;;;;;;1.30;1.20;;;-2.60;99.90;;;;;;5081906;28;20374;-73
2023/01/21 02:34:52;;;;;;;1.40;1.30;;;-2.60;99.90;;;;;;5065413;28;20402;-72
2023/01/21 02:37:39;;;;;;;1.80;1.70;;;-2.60;99.90;;;;;;5089188;28;20382;-72
2023/01/21 02:40:24;;;;;;;2.38;1.67;;;-2.60;99.90;;;;;;5088407;28;20446;-72
2023/01/21 02:43:15;;;;;;;1.70;1.42;;;-2.70;99.90;;;;;;5089232;28;20394;-73
2023/01/21 02:45:50;;;;;;;2.47;1.52;;;-2.70;99.90;;;;;;5090175;28;20396;-73
2023/01/21 02:48:20;;;;;;;1.63;1.33;;;-2.70;99.90;;;;;;5089966;28;20446;-72
2023/01/21 02:50:51;;;;;;;1.58;1.27;;;-2.60;99.90;;;;;;5090187;28;20420;-73
2023/01/21 02:53:27;;;;;;;2.50;1.50;;;-2.60;99.90;;;;;;5087747;28;20390;-72
2023/01/21 02:55:53;;;;;;;3.03;1.60;;;-2.60;99.90;;;;;;5089983;28;20398;-73
2023/01/21 02:58:23;;;;;;;1.60;1.30;;;-2.60;99.90;;;;;;5090001;28;20376;-73
2023/01/21 03:01:12;;;;;;;1.60;1.20;;;-2.70;99.90;;;;;;5084376;28;20427;-72
2023/01/21 03:04:07;;;;;;;2.60;1.40;;;-2.80;99.90;;;;;;5068986;28;20807;-72
2023/01/21 03:06:35;;;;;;;1.50;1.40;;;-2.80;99.90;;;;;;5069772;28;20850;-73
2023/01/21 03:09:15;;;;;;;1.50;1.40;;;-2.90;99.90;;;;;;5085676;28;20784;-73
2023/01/21 03:11:47;;;;;;;1.45;1.35;;;-2.90;99.90;;;;;;5089636;28;20405;-73
2023/01/21 03:17:51;;;;;;;1.60;1.50;;;-2.80;99.90;;;;;;5090788;28;20381;-74
2023/01/21 03:20:29;;;;;;;2.20;1.52;;;-2.90;99.90;;;;;;5093920;28;20429;-73
2023/01/21 03:23:00;;;;;;;1.50;1.40;;;-2.90;99.90;;;;;;5092835;28;20557;-73
2023/01/21 03:25:30;;;;;;;1.88;1.77;;;-2.90;99.90;;;;;;5093145;28;20765;-72
2023/01/21 03:27:58;;;;;;;1.60;1.30;;;-3.00;99.90;;;;;;5093662;28;20427;-72
2023/01/21 03:30:25;;;;;;;1.50;1.35;;;-2.90;99.90;;;;;;5093619;28;20756;-72
2023/01/21 03:32:54;;;;;;;2.70;1.50;;;-3.00;99.90;;;;;;5092811;28;20857;-72
2023/01/21 03:35:25;;;;;;;1.60;1.40;;;-3.10;99.90;;;;;;5093130;28;20404;-72
2023/01/21 03:38:02;;;;;;;1.48;1.33;;;-3.00;99.90;;;;;;5091834;28;20481;-72
2023/01/21 03:40:34;;;;;;;1.55;1.35;;;-3.00;99.90;;;;;;5093444;28;20392;-72
2023/01/21 03:43:00;;;;;;;1.40;1.30;;;-2.90;99.90;;;;;;5092565;28;20378;-72
2023/01/21 03:45:57;;;;;;;3.43;1.83;;;-2.90;99.90;;;;;;5093252;28;20461;-72
2023/01/21 03:48:34;;;;;;;1.75;1.23;;;-3.00;99.90;;;;;;5090444;28;20481;-72
2023/01/21 03:51:04;;;;;;;1.30;1.20;;;-3.00;99.90;;;;;;5093016;28;20405;-72
2023/01/21 03:53:29;;;;;;;1.85;1.20;;;-3.00;99.90;;;;;;5072099;28;20426;-72
2023/01/21 03:55:55;;;;;;;1.87;1.50;;;-3.00;99.90;;;;;;5081742;28;20494;-72
2023/01/21 03:58:20;;;;;;;1.30;1.20;;;-3.00;99.90;;;;;;5092514;28;20417;-72
2023/01/21 04:00:48;;;;;;;2.87;1.33;;;-3.10;99.90;;;;;;5093069;28;20378;-72
2023/01/21 04:03:13;;;;;;;1.35;1.25;;;-3.00;99.90;;;;;;5092220;28;20929;-72
2023/01/21 04:05:39;;;;;;;1.60;1.20;;;-3.20;99.90;;;;;;5092775;28;20501;-73
2023/01/21 04:08:04;;;;;;;2.50;1.40;;;-3.30;99.90;;;;;;5092496;28;20402;-73
2023/01/21 04:10:30;;;;;;;1.57;1.43;;;-3.20;99.90;;;;;;5092538;28;20472;-73
2023/01/21 04:12:55;;;;;;;2.90;1.57;;;-3.20;99.90;;;;;;5084987;28;20392;-72
2023/01/21 04:15:21;;;;;;;1.60;1.20;;;-3.20;99.90;;;;;;5081719;28;20473;-73
2023/01/21 04:17:46;;;;;;;2.00;1.50;;;-3.40;99.90;;;;;;5092687;28;20394;-72
2023/01/21 04:20:12;;;;;;;1.85;1.20;;;-3.30;99.90;;;;;;5092590;28;20406;-73
2023/01/21 04:22:37;;;;;;;1.75;1.55;;;-3.20;99.90;;;;;;5092314;28;20382;-72
2023/01/21 04:25:04;;;;;;;1.52;1.10;;;-3.20;99.90;;;;;;5091903;28;20405;-73
2023/01/21 04:27:30;;;;;;;2.30;1.40;;;-3.20;99.90;;;;;;5092283;28;20386;-73
2023/01/21 04:29:55;;;;;;;1.93;1.43;;;-3.20;99.90;;;;;;5091071;28;20386;-73
2023/01/21 04:32:21;;;;;;;1.92;1.40;;;-3.20;99.90;;;;;;5092727;28;20931;-73
2023/01/21 04:34:46;;;;;;;2.08;1.50;;;-3.30;99.90;;;;;;5090891;28;20382;-72
2023/01/21 04:37:12;;;;;;;2.17;1.40;;;-3.30;99.90;;;;;;5092501;28;20477;-72
2023/01/21 04:39:37;;;;;;;1.63;1.35;;;-3.30;99.90;;;;;;5092856;28;20378;-72
2023/01/21 04:42:04;;;;;;;1.23;1.10;;;-3.20;99.90;;;;;;5092548;28;20445;-72
2023/01/21 04:44:29;;;;;;;2.00;1.40;;;-3.20;99.90;;;;;;5088013;28;20809;-72
2023/01/21 04:46:55;;;;;;;1.57;1.47;;;-3.30;99.90;;;;;;5072425;28;20388;-73
2023/01/21 04:49:20;;;;;;;2.50;1.33;;;-3.30;99.90;;;;;;5085364;28;20933;-72
2023/01/21 04:51:46;;;;;;;1.30;1.10;;;-3.20;99.90;;;;;;5091134;28;20878;-72
2023/01/21 04:54:11;;;;;;;1.40;1.30;;;-3.40;99.90;;;;;;5091318;28;20370;-72
2023/01/21 04:56:37;;;;;;;3.70;1.40;;;-3.40;99.90;;;;;;5092029;28;20447;-73
2023/01/21 04:59:03;;;;;;;2.00;1.10;;;-3.40;99.90;;;;;;5092342;28;20447;-72
2023/01/21 05:01:28;;;;;;;1.50;1.40;;;-3.50;99.90;;;;;;5092200;28;20400;-72
2023/01/21 05:03:54;;;;;;;1.77;1.50;;;-3.50;99.90;;;;;;5091052;28;20390;-71
2023/01/21 05:06:19;;;;;;;1.90;1.53;;;-3.40;99.90;;;;;;5091832;28;20394;-72
2023/01/21 05:08:45;;;;;;;2.50;1.30;;;-3.40;99.90;;;;;;5091859;28;20892;-72
2023/01/21 05:11:15;;;;;;;1.70;1.35;;;-3.50;99.90;;;;;;5091619;28;20405;-72
2023/01/21 05:13:40;;;;;;;3.50;1.67;;;-3.50;99.90;;;;;;5091188;28;20385;-72
2023/01/21 05:16:08;;;;;;;1.70;1.43;;;-3.40;99.90;;;;;;5092005;28;20437;-72
2023/01/21 05:18:35;;;;;;;1.60;1.50;;;-3.40;99.90;;;;;;5091933;28;20381;-72
2023/01/21 05:21:00;;;;;;;2.50;1.70;;;-3.40;99.90;;;;;;5091835;28;20382;-72
2023/01/21 05:23:26;;;;;;;1.50;1.40;;;-3.40;99.90;;;;;;5090802;28;20392;-72
2023/01/21 05:25:51;;;;;;;2.70;1.70;;;-3.50;99.90;;;;;;5091682;28;20416;-72
2023/01/21 05:28:17;;;;;;;1.60;1.50;;;-3.40;99.90;;;;;;5091795;28;20386;-72
2023/01/21 05:30:42;;;;;;;2.33;1.70;;;-3.30;99.90;;;;;;5091086;28;20868;-71
2023/01/21 05:33:08;;;;;;;2.10;1.60;;;-3.30;99.90;;;;;;5090398;28;20563;-72
2023/01/21 05:35:34;;;;;;;2.00;1.80;;;-3.40;99.90;;;;;;5091173;28;20401;-72
2023/01/21 05:37:59;;;;;;;2.15;1.70;;;-3.50;99.90;;;;;;5091281;28;20393;-72
2023/01/21 05:40:25;;;;;;;2.10;1.90;;;-3.50;99.90;;;;;;5090698;28;20390;-72
2023/01/21 05:42:50;;;;;;;2.00;1.70;;;-3.40;99.90;;;;;;5090490;28;20425;-69
2023/01/21 05:45:16;;;;;;;1.90;1.70;;;-3.40;99.90;;;;;;5084519;28;20502;-68
2023/01/21 05:47:42;;;;;;;1.73;1.63;;;-3.50;99.90;;;;;;5089432;28;20390;-68
2023/01/21 05:50:08;;;;;;;1.80;1.60;;;-3.40;99.90;;;;;;5089880;28;20374;-69
2023/01/21 05:52:34;;;;;;;1.60;1.50;;;-3.50;99.90;;;;;;5077856;28;20411;-69
2023/01/21 05:55:00;;;;;;;2.30;1.35;;;-3.60;99.90;;;;;;5069403;28;20431;-69
2023/01/21 05:57:25;;;;;;;1.30;1.20;;;-3.60;99.90;;;;;;5075017;28;20390;-69
2023/01/21 05:59:51;;;;;;;1.30;1.20;;;-3.60;99.90;;;;;;5090973;28;20469;-69
2023/01/21 06:02:16;;;;;;;1.53;1.40;;;-3.60;99.90;;;;;;5091050;28;20378;-68
2023/01/21 06:04:42;;;;;;;1.40;1.30;;;-3.50;99.90;;;;;;5089998;28;20402;-69
2023/01/21 06:07:07;;;;;;;1.60;1.50;;;-3.50;99.90;;;;;;5090855;28;20374;-69
2023/01/21 06:09:33;;;;;;;1.97;1.23;;;-3.50;99.90;;;;;;5087468;28;20397;-68
2023/01/21 06:11:58;;;;;;;2.80;1.80;;;-3.50;99.90;;;;;;5088767;28;20386;-68
2023/01/21 06:14:24;;;;;;;2.80;1.80;;;-3.50;99.90;;;;;;5087230;28;20409;-70
2023/01/21 06:16:49;;;;;;;1.87;1.60;;;-3.50;99.90;;;;;;5070552;28;20410;-70
2023/01/21 06:19:15;;;;;;;2.35;1.60;;;-3.60;99.90;;;;;;5072551;28;20380;-70
2023/01/21 06:21:40;;;;;;;1.70;1.55;;;-3.50;99.90;;;;;;5090792;28;20382;-71
2023/01/21 06:24:06;;;;;;;1.90;1.65;;;-3.60;99.90;;;;;;5089684;28;20879;-71
2023/01/21 06:26:32;;;;;;;2.00;1.60;;;-3.50;99.90;;;;;;5090455;28;20473;-71
2023/01/21 06:28:58;;;;;;;3.67;1.92;;;-3.50;99.90;;;;;;5090665;28;20385;-71
2023/01/21 06:31:24;;;;;;;3.00;2.00;;;-3.60;99.90;;;;;;5089484;28;20384;-71
2023/01/21 06:33:50;;;;;;;2.70;1.80;;;-3.70;99.90;;;;;;5089834;28;20370;-71
2023/01/21 06:36:15;;;;;;;2.20;1.53;;;-3.70;99.90;;;;;;5090311;28;20932;-70
2023/01/21 06:38:41;;;;;;;2.30;1.50;;;-3.60;99.90;;;;;;5090526;28;20949;-70
2023/01/21 06:41:06;;;;;;;1.70;1.60;;;-3.60;99.90;;;;;;5090289;28;20402;-71
2023/01/21 06:43:32;;;;;;;2.77;1.80;;;-3.60;99.90;;;;;;5089491;28;20447;-72
2023/01/21 06:45:57;;;;;;;2.77;2.03;;;-3.70;99.90;;;;;;5090567;28;20481;-71
2023/01/21 06:48:23;;;;;;;3.80;2.40;;;-3.70;99.90;;;;;;5090717;28;20860;-71
2023/01/21 06:50:48;;;;;;;2.20;2.00;;;-3.70;99.90;;;;;;5090211;28;20753;-70
2023/01/21 06:53:14;;;;;;;2.65;2.08;;;-3.70;99.90;;;;;;5092453;28;20377;-68
2023/01/21 06:55:40;;;;;;;2.70;2.10;;;-3.80;99.90;;;;;;5094404;28;20732;-69
2023/01/21 06:58:05;;;;;;;3.33;2.10;;;-3.70;99.90;;;;;;5094579;28;20380;-69
2023/01/21 07:00:31;;;;;;;2.50;2.10;;;-3.70;99.90;;;;;;5094093;28;20891;-70
2023/01/21 07:03:00;;;;;;;2.20;2.00;;;-3.70;99.90;;;;;;5093500;28;20439;-70
2023/01/21 07:05:26;;;;;;;2.67;1.90;;;-3.80;99.90;;;;;;5094030;28;20845;-70
2023/01/21 07:07:56;;;;;;;2.00;1.80;;;-3.80;99.90;;;;;;5094101;28;20382;-71
2023/01/21 07:10:22;;;;;;;3.95;2.10;;;-3.80;99.90;;;;;;5094053;28;20759;-71
2023/01/21 07:12:48;;;;;;;2.20;1.92;;;-3.80;99.90;;;;;;5093516;28;20370;-72
2023/01/21 07:15:13;;;;;;;2.20;2.00;;;-3.80;99.90;;;;;;5094122;28;20484;-71
2023/01/21 07:17:39;;;;;;;3.10;1.98;;;-3.80;99.90;;;;;;5094187;28;20389;-71
2023/01/21 07:20:05;;;;;;;4.77;2.50;;;-3.80;99.90;;;;;;5093968;28;20934;-71
2023/01/21 07:22:34;;;;;;;4.20;2.30;;;-3.80;99.90;;;;;;5093364;28;20485;-71
2023/01/21 07:25:00;;;;;;;2.70;2.40;;;-3.80;99.90;;;;;;5093816;28;20975;-71
2023/01/21 07:27:25;;;;;;;3.00;2.30;;;-3.90;99.90;;;;;;5093906;28;20382;-70
2023/01/21 07:29:51;;;;;;;2.58;2.28;;;-3.70;99.90;;;;;;5093618;28;20385;-70
2023/01/21 07:32:16;;;;;;;2.20;2.00;;;-3.80;99.90;;;;;;5093807;28;20378;-71
2023/01/21 07:34:42;;;;;;;2.43;2.23;;;-3.80;99.90;;;;;;5093077;28;20436;-71
2023/01/21 07:37:07;;;;;;;3.13;2.40;;;-3.90;99.90;;;;;;5093340;28;21151;-70
2023/01/21 07:39:33;;;;;;;2.70;2.40;;;-3.90;99.90;;;;;;5093811;28;20475;-71
2023/01/21 07:41:58;;;;;;;2.57;2.17;;;-3.80;99.90;;;;;;5092896;28;20431;-68
2023/01/21 07:44:24;;;;;;;2.60;2.40;;;-3.80;99.90;;;;;;5092809;28;20492;-69
2023/01/21 07:46:50;;;;;;;3.63;2.50;;;-3.60;99.90;;;;;;5093324;28;20775;-70
2023/01/21 07:49:16;;;;;;;4.40;3.10;;;-3.60;99.90;;;;;;5091606;28;20388;-69
2023/01/21 07:51:45;;;;;;;4.93;3.00;;;-3.50;99.90;;;;;;5088456;28;20475;-70
2023/01/21 07:54:12;;;;;;;4.20;3.70;;;-3.50;99.90;;;;;;5084417;28;20806;-70
2023/01/21 07:56:37;;;;;;;3.63;3.28;;;-3.40;99.90;;;;;;5090836;28;20394;-71
2023/01/21 07:59:03;;;;;;;4.00;3.10;;;-3.30;99.90;;;;;;5093077;28;20392;-69
2023/01/21 08:01:30;;;;;;;4.33;3.40;;;-3.30;99.90;;;;;;5086724;28;20423;-70
2023/01/21 08:03:59;;;;;;;6.72;3.65;;;-3.20;99.90;;;;;;5091271;28;20917;-70
2023/01/21 08:06:26;;;;;;;6.13;3.10;;;-3.30;99.90;;;;;;5080694;28;20506;-70
2023/01/21 08:08:52;;;;;;;4.37;3.57;;;-3.20;99.90;;;;;;5087727;28;20823;-70
2023/01/21 08:11:17;;;;;;;3.73;3.30;;;-3.00;99.90;;;;;;5089251;28;20459;-69
2023/01/21 08:13:43;;;;;;;5.57;3.60;;;-3.00;99.90;;;;;;5091655;28;20447;-70
2023/01/21 08:16:10;;;;;;;4.00;3.20;;;-3.10;99.90;;;;;;5091335;28;20892;-70
2023/01/21 08:18:36;;;;;;;5.00;3.70;;;-2.90;99.90;;;;;;5092899;28;20370;-70
2023/01/21 08:21:01;;;;;;;4.53;3.75;;;-2.70;99.90;;;;;;5092782;28;20460;-69
2023/01/21 08:23:27;;;;;;;3.90;3.50;;;-2.40;99.90;;;;;;5091672;28;20393;-70
2023/01/21 08:25:53;;;;;;;4.40;3.50;;;-2.60;99.90;;;;;;5092116;28;20412;-70
2023/01/21 08:28:18;;;;;;;5.75;3.75;;;-2.70;99.90;;;;;;5092569;28;20751;-70
2023/01/21 08:30:44;;;;;;;5.70;4.15;;;-2.80;99.90;;;;;;5092607;28;20387;-70
2023/01/21 08:33:09;;;;;;;5.15;3.97;;;-2.70;99.90;;;;;;5091696;28;20370;-70
2023/01/21 08:35:35;;;;;;;6.55;4.13;;;-2.70;99.90;;;;;;5092365;28;20394;-70
2023/01/21 08:38:01;;;;;;;4.70;4.20;;;-2.60;99.90;;;;;;5092321;28;20894;-70
2023/01/21 08:40:26;;;;;;;4.57;3.90;;;-2.70;99.90;;;;;;5092805;28;20467;-70
2023/01/21 08:43:01;;;;;;;4.57;3.90;;;-2.70;99.90;;;;;;5091454;28;20409;-70
2023/01/21 08:45:27;;;;;;;8.73;4.80;;;-2.70;99.90;;;;;;5092355;28;20877;-70
2023/01/21 08:47:52;;;;;;;5.22;4.63;;;-2.30;99.90;;;;;;5093344;28;20469;-69
2023/01/21 08:50:18;;;;;;;7.23;4.20;;;-2.40;99.90;;;;;;5092304;28;20520;-70
2023/01/21 08:52:50;;;;;;;4.82;4.32;;;-2.30;99.90;;;;;;5091221;28;20386;-70
2023/01/21 08:55:16;;;;;;;4.57;4.18;;;-2.20;99.90;;;;;;5092415;28;20776;-70
2023/01/21 08:57:41;;;;;;;4.88;3.80;;;-1.90;99.90;;;;;;5091964;28;20393;-70
2023/01/21 09:00:08;;;;;;;3.78;3.30;;;-1.80;99.90;;;;;;5092144;28;20382;-70
2023/01/21 09:02:33;;;;;;;4.50;3.42;;;-1.80;99.90;;;;;;5091215;28;20375;-69
2023/01/21 09:04:59;;;;;;;4.60;3.17;;;-1.80;99.90;;;;;;5091786;28;20408;-70
2023/01/21 09:07:24;;;;;;;3.50;3.17;;;-1.50;99.90;;;;;;5091853;28;20398;-70
2023/01/21 09:09:50;;;;;;;4.13;3.20;;;-1.50;99.90;;;;;;5090930;28;20374;-70
2023/01/21 09:12:15;;;;;;;4.97;3.50;;;-1.20;99.90;;;;;;5091406;28;20389;-70
2023/01/21 09:14:41;;;;;;;4.10;3.47;;;-1.30;99.90;;;;;;5090121;28;20472;-69
2023/01/21 09:17:06;;;;;;;4.73;3.70;;;-1.60;99.90;;;;;;5091264;28;20386;-71
2023/01/21 09:19:32;;;;;;;4.50;3.50;;;-1.50;99.90;;;;;;5091737;28;20407;-70
2023/01/21 09:21:57;;;;;;;4.70;4.30;;;-1.20;99.90;;;;;;5091551;28;20416;-70
2023/01/21 09:24:23;;;;;;;4.20;3.60;;;-1.30;99.90;;;;;;5090785;28;20401;-69
2023/01/21 09:26:49;;;;;;;6.57;4.88;;;-1.30;99.90;;;;;;5091702;28;20447;-70
2023/01/21 09:29:15;;;;;;;4.65;4.15;;;-1.30;99.90;;;;;;5091476;28;20390;-71
2023/01/21 09:31:40;;;;;;;4.90;3.80;;;-1.00;99.90;;;;;;5091637;28;20465;-70
2023/01/21 09:34:06;;;;;;;4.60;3.40;;;-1.10;99.90;;;;;;5090407;28;20541;-71
2023/01/21 09:36:33;;;;;;;4.03;3.60;;;-0.90;99.90;;;;;;5090767;28;20386;-70
2023/01/21 09:38:59;;;;;;;4.85;4.10;;;-0.90;98.60;;;;;;5091082;28;20397;-70
2023/01/21 09:41:51;;;;;;;4.37;3.77;;;-0.70;99.90;;;;;;5091473;28;20469;-70
2023/01/21 09:44:35;;;;;;;4.50;3.80;;;-0.40;99.20;;;;;;5090406;28;20405;-70
2023/01/21 09:47:03;;;;;;;4.77;3.50;;;-0.30;99.90;;;;;;5089407;28;20616;-70
2023/01/21 09:49:31;;;;;;;4.50;4.10;;;-0.10;97.80;;;;;;5089956;28;20386;-70
2023/01/21 09:52:24;;;;;;;5.10;3.30;;;-0.20;95.40;;;;;;5091165;28;20378;-70
2023/01/21 09:54:50;;;;;;;3.92;2.83;;;-0.10;94.40;;;;;;5089396;28;20386;-70
2023/01/21 09:57:40;;;;;;;3.92;2.92;;;0.00;93.70;;;;;;5090511;28;20960;-70
2023/01/21 10:00:27;;;;;;;3.88;3.20;;;0.30;93.60;;;;;;5091277;28;20392;-70
2023/01/21 10:03:07;;;;;;;4.88;2.95;;;0.60;91.20;;;;;;5090060;28;20667;-70
2023/01/21 10:05:52;;;;;;;4.40;2.65;;;0.50;90.20;;;;;;5090445;28;20402;-70
2023/01/21 10:08:29;;;;;;;4.55;3.50;;;0.70;91.00;;;;;;5090831;28;20413;-70
2023/01/21 10:10:57;;;;;;;3.67;3.15;;;0.80;89.20;;;;;;5091010;28;20370;-70
2023/01/21 10:13:50;;;;;;;3.35;2.90;;;0.80;90.70;;;;;;5089918;28;20382;-70
2023/01/21 10:16:34;;;;;;;3.80;3.10;;;0.90;87.40;;;;;;5078607;28;20489;-70
2023/01/21 10:19:01;;;;;;;5.75;3.55;;;1.20;88.50;;;;;;5091054;28;20461;-71
2023/01/21 10:21:41;;;;;;;3.42;3.13;;;1.40;88.00;;;;;;5091109;28;20382;-70
2023/01/21 10:24:15;;;;;;;3.80;3.08;;;1.40;84.50;;;;;;5089778;28;20832;-71
2023/01/21 10:26:43;;;;;;;3.40;2.90;;;1.50;81.40;;;;;;5090634;28;20421;-71
2023/01/21 10:29:16;;;;;;;3.70;3.30;;;1.30;85.30;;;;;;5090582;28;20388;-70
2023/01/21 10:31:48;;;;;;;5.55;3.60;;;1.30;81.90;;;;;;5090699;28;20462;-70
2023/01/21 10:34:18;;;;;;;3.92;3.53;;;1.40;86.40;;;;;;5089418;28;20405;-70
2023/01/21 10:37:04;;;;;;;4.00;3.53;;;1.60;86.30;;;;;;5090604;28;20794;-71
2023/01/21 10:40:00;;;;;;;5.18;3.00;;;1.40;83.80;;;;;;5090404;28;20385;-70
2023/01/21 10:42:43;;;;;;;4.75;4.10;;;1.80;84.50;;;;;;5089698;28;20389;-71
2023/01/21 10:45:28;;;;;;;4.47;4.07;;;1.90;83.30;;;;;;5090495;28;20479;-71
2023/01/21 10:48:04;;;;;;;4.63;3.75;;;1.80;83.00;;;;;;5090367;28;20418;-69
2023/01/21 10:50:44;;;;;;;5.35;4.40;;;1.90;85.30;;;;;;5090277;28;20457;-70
2023/01/21 10:53:17;;;;;;;5.32;4.78;;;1.70;86.40;;;;;;5089668;28;20456;-70
2023/01/21 10:56:12;;;;;;;5.03;4.13;;;1.50;89.10;;;;;;5090495;28;20472;-70
2023/01/21 10:58:59;;;;;;;6.20;4.57;;;1.60;90.50;;;;;;5089227;28;20400;-69
2023/01/21 11:02:17;;;;;;;6.57;4.40;;;1.70;89.60;;;;;;5089805;28;20460;-68
2023/01/21 11:04:43;;;;;;;5.05;4.40;;;1.60;87.40;;;;;;5021871;28;20467;-69
2023/01/21 11:07:13;;;;;;;4.97;4.50;;;1.70;89.30;;;;;;5090409;28;20418;-69
2023/01/21 11:09:44;;;;;;;5.30;4.40;;;1.70;88.70;;;;;;5089858;28;21610;-69
2023/01/21 11:12:14;;;;;;;5.50;4.68;;;1.80;88.50;;;;;;5090003;28;20386;-68
2023/01/21 11:14:40;;;;;;;5.47;4.97;;;2.00;89.30;;;;;;5087759;28;20381;-69
2023/01/21 11:17:05;;;;;;;6.70;4.72;;;2.40;84.90;;;;;;5089259;28;20477;-69
2023/01/21 11:19:31;;;;;;;5.20;3.90;;;2.60;82.50;;;;;;5089776;28;20389;-69
2023/01/21 11:22:17;;;;;;;4.97;4.47;;;2.50;81.30;;;;;;5090262;28;20378;-70
2023/01/21 11:24:47;;;;;;;6.80;4.60;;;2.10;84.20;;;;;;5089507;28;20416;-69
2023/01/21 11:27:35;;;;;;;6.00;5.40;;;2.40;82.90;;;;;;5086745;28;20377;-69
2023/01/21 11:30:02;;;;;;;5.40;4.90;;;2.70;79.30;;;;;;5070090;28;20387;-69
2023/01/21 11:32:29;;;;;;;6.38;4.60;;;2.90;80.90;;;;;;5069723;28;20386;-70
2023/01/21 11:35:07;;;;;;;6.80;4.93;;;3.00;78.10;;;;;;5082687;28;20417;-70
2023/01/21 11:37:33;;;;;;;6.15;5.18;;;2.90;80.90;;;;;;5082046;28;20390;-70
2023/01/21 11:40:04;;;;;;;5.47;4.97;;;3.20;75.10;;;;;;5093570;28;20443;-70
2023/01/21 11:42:30;;;;;;;9.50;5.68;;;3.30;75.40;;;;;;5092350;28;20381;-70
2023/01/21 11:45:22;;;;;;;6.40;5.35;;;3.20;77.20;;;;;;5091630;28;20394;-70
2023/01/21 11:47:52;;;;;;;6.50;5.50;;;3.20;76.50;;;;;;5093381;28;20524;-70
2023/01/21 11:50:36;;;;;;;6.65;5.22;;;3.20;71.60;;;;;;5093366;28;20819;-70
2023/01/21 11:53:15;;;;;;;7.37;5.67;;;3.40;72.10;;;;;;5092626;28;20929;-71
2023/01/21 11:55:43;;;;;;;6.40;5.03;;;3.00;73.60;;;;;;5093159;28;20386;-70
2023/01/21 11:58:27;;;;;;;5.80;5.20;;;2.40;78.10;;;;;;5076050;28;20384;-70
2023/01/21 12:00:55;;;;;;;6.80;5.80;;;2.10;85.20;;;;;;5073026;28;20936;-70
2023/01/21 12:03:30;;;;;;;5.30;4.80;;;2.60;77.30;;;;;;5082465;28;20393;-70
2023/01/21 12:05:56;;;;;;;7.00;5.25;;;1.80;80.90;;;;;;5093174;28;20772;-70
2023/01/21 12:08:28;;;;;;;6.68;5.53;;;2.10;81.40;;;;;;5092846;28;20953;-73
2023/01/21 12:10:56;;;;;;;7.80;4.87;;;2.40;83.40;;;;;;5080690;28;20524;-70
2023/01/21 12:13:26;;;;;;;8.52;5.50;;;2.20;81.50;;;;;;5070805;28;20384;-70
2023/01/21 12:16:34;;;;;;;7.32;5.57;;;2.30;83.00;;;;;;5072564;28;20387;-70
2023/01/21 12:19:18;;;;;;;8.68;6.18;;;2.40;82.00;;;;;;5072794;28;20816;-70
2023/01/21 12:22:03;;;;;;;7.18;6.18;;;2.50;80.60;;;;;;5092629;28;20417;-70
2023/01/21 12:24:51;;;;;;;6.60;5.80;;;2.40;80.40;;;;;;5091324;28;20470;-70
2023/01/21 12:27:30;;;;;;;7.10;6.15;;;2.30;83.90;;;;;;5092600;28;20425;-70
2023/01/21 12:30:22;;;;;;;7.43;5.78;;;2.00;91.00;;;;;;5092742;28;20378;-71
2023/01/21 12:33:11;;;;;;;7.45;6.20;;;2.10;86.90;;;;;;5091683;28;20373;-70
2023/01/21 12:35:46;;;;;;;7.50;6.00;;;1.90;90.50;;;;;;5092106;28;20883;-70
2023/01/21 12:38:16;;;;;;;6.82;5.97;;;1.60;91.20;;;;;;5092502;28;20401;-70
2023/01/21 12:40:47;;;;;;;7.03;6.32;;;1.50;95.00;;;;;;5091056;28;20824;-70
2023/01/21 12:43:23;;;;;;;8.03;6.20;;;1.50;92.30;;;;;;5091630;28;20388;-69
2023/01/21 12:46:03;;;;;;;7.43;6.10;;;1.50;99.90;;;;;;5092373;28;20419;-70
2023/01/21 12:48:41;;;;;;;7.50;5.60;;;1.60;94.50;;;;;;5092652;28;20797;-69
2023/01/21 12:51:12;;;;;;;6.80;5.73;;;1.70;90.90;;;;;;5090983;28;20426;-70
2023/01/21 12:53:57;;;;;;;8.65;6.38;;;1.70;90.70;;;;;;5091304;28;20420;-70
2023/01/21 12:56:45;;;;;;;7.28;5.80;;;1.80;91.20;;;;;;5092040;28;20431;-70
2023/01/21 12:59:24;;;;;;;9.10;5.80;;;2.20;91.00;;;;;;5091973;28;20404;-69
2023/01/21 13:01:57;;;;;;;7.97;5.63;;;2.20;90.40;;;;;;5091604;28;20430;-70
2023/01/21 13:04:39;;;;;;;7.32;5.28;;;2.50;86.20;;;;;;5089777;28;20442;-70
2023/01/21 13:07:35;;;;;;;7.25;5.43;;;2.50;82.40;;;;;;5092029;28;20386;-70
2023/01/21 13:10:20;;;;;;;7.40;5.15;;;2.20;79.10;;;;;;5091857;28;20385;-70
2023/01/21 13:12:54;;;;;;;6.60;4.80;;;2.30;80.80;;;;;;5090988;28;20397;-70